Airfield :
LOGIN :

Register | Disclaimer

   EN    FR    IT 

 










Legend :    VFR   Marginal VFR   IFR   Intensive IFR   Very Intensive IFR
Visi :
Ceiling :
>= 8 km
>= 3000ft
5 to 8 km
1000 to 3000 ft
1500m to 5 km
500 to 1000 ft
800 to 1500m
200 to 500 ft
< 800m
< 200 ft
Symbols :   Thunderstorms  Fog  Heavy snow  Heavy precipitations  Wind > 20 kt
SIGMETs :     Misc.  Thunderstorms  Icing  Turbulence  Mountain Waves  Volcanic Ashes






- Airport Elevation : 2425 ft


ETHA - Altenstadt Army

CURRENT METAR :
  • 121720Z 30008KT 9999 -RA FEW010 BKN035 09/07 Q1011 BLU

EXPIRED METARs :
  • 121620Z 29009KT 9999 -RA SCT010 BKN030 09/07 Q1011 BLU
  • 121520Z 29010KT 9999 -RA SCT010 OVC025 09/06 Q1011 BLU

TAF TAF ETHA
Valid from the 12 at 11:00 until the 12 at 20:00 UTC


121020Z 1211/1220 27012G22KT 9000 -RA SCT010 OVC030
TEMPO 1211/1220 29015G25KT 4000 RA BKN008 OVC020



MET'MAP, your aeronautical weather chart ! - Copyright ORBIFLY December 2007 - Disclaimer

ORBIFLY MET'MAP TEAM :

Programming & Development : Alexandra Zaïnal
Concept & original design : Baudouin d'Aumeries
Assistance for programming : Marc-Olivier Méhu
Technical & hardware support : Manuel Goepfert

Contact : metmap@orbifly.com




SOURCES & CREDITS :

   NOAA